Time;durP1;ratioP1;P1;durP2;ratioP2;P2;SDS_P1;SDS_P2;PMS_P1;PMS_P2;Temp;Humidity;BMP_temperature;BMP_pressure;BME280_temperature;BME280_humidity;BME280_pressure;Samples;Min_cycle;Max_cycle;Signal;HPM_P1;HPM_P2
2021/12/22 00:00:52;;;;;;;16.90;13.07;;;9.40;78.90;;;;;;4901336;29;20032;-77
2021/12/22 00:03:18;;;;;;;18.45;12.35;;;9.40;78.90;;;;;;4918255;29;20411;-75
2021/12/22 00:05:46;;;;;;;16.10;12.93;;;9.40;78.90;;;;;;4917981;29;20020;-76
2021/12/22 00:08:13;;;;;;;17.08;12.30;;;9.40;78.90;;;;;;4900799;29;20056;-75
2021/12/22 00:10:41;;;;;;;15.77;12.27;;;9.40;78.90;;;;;;4917930;29;20052;-77
2021/12/22 00:13:06;;;;;;;17.00;12.10;;;9.40;79.00;;;;;;4901308;29;20024;-76
2021/12/22 00:15:32;;;;;;;15.07;11.90;;;9.40;78.90;;;;;;4917568;29;20042;-76
2021/12/22 00:17:58;;;;;;;15.75;12.57;;;9.40;78.90;;;;;;4900874;29;20062;-76
2021/12/22 00:20:23;;;;;;;16.20;12.15;;;9.40;78.90;;;;;;4917695;29;20056;-76
2021/12/22 00:22:49;;;;;;;14.98;12.27;;;9.40;78.90;;;;;;4900290;29;20068;-76
2021/12/22 00:25:15;;;;;;;14.25;12.23;;;9.40;79.00;;;;;;4917412;29;20587;-76
2021/12/22 00:27:41;;;;;;;14.88;11.85;;;9.40;79.00;;;;;;4900388;29;20047;-76
2021/12/22 00:30:08;;;;;;;13.20;11.45;;;9.40;78.90;;;;;;4900833;29;20554;-76
2021/12/22 00:32:36;;;;;;;15.13;11.88;;;9.40;78.90;;;;;;4900638;29;20036;-76
2021/12/22 00:35:03;;;;;;;15.25;11.98;;;9.40;78.90;;;;;;4900395;29;20119;-77
2021/12/22 00:37:30;;;;;;;13.95;11.25;;;9.40;78.90;;;;;;4917302;29;20087;-76
2021/12/22 00:39:57;;;;;;;14.85;11.75;;;9.40;79.40;;;;;;4900499;29;20180;-75
2021/12/22 00:42:24;;;;;;;14.73;11.93;;;9.30;78.80;;;;;;4917371;29;20399;-76
2021/12/22 00:44:54;;;;;;;15.02;11.82;;;9.40;78.90;;;;;;4900155;29;20071;-76
2021/12/22 00:47:22;;;;;;;13.63;11.85;;;9.40;78.90;;;;;;4917214;29;20474;-76
2021/12/22 00:49:48;;;;;;;14.48;11.90;;;9.40;78.90;;;;;;4900244;29;20028;-76
2021/12/22 00:52:14;;;;;;;14.88;12.07;;;9.30;78.90;;;;;;4917131;29;20497;-76
2021/12/22 00:54:40;;;;;;;14.77;11.65;;;9.40;79.00;;;;;;4916905;29;20365;-76
2021/12/22 00:57:06;;;;;;;14.02;11.77;;;9.40;78.90;;;;;;4915878;29;20031;-77
2021/12/22 00:59:33;;;;;;;13.52;10.95;;;9.40;79.00;;;;;;4917002;29;20488;-76
2021/12/22 01:02:00;;;;;;;14.80;12.05;;;9.40;78.90;;;;;;4899919;29;20591;-76
2021/12/22 01:04:26;;;;;;;14.45;12.07;;;9.30;78.80;;;;;;4899854;29;20047;-76
2021/12/22 01:06:52;;;;;;;15.48;12.23;;;9.40;78.90;;;;;;4916821;29;20424;-75
2021/12/22 01:09:17;;;;;;;14.05;12.35;;;9.40;78.90;;;;;;4899879;29;20488;-76
2021/12/22 01:11:43;;;;;;;14.60;11.48;;;9.30;78.90;;;;;;4916932;29;20028;-76
2021/12/22 01:14:08;;;;;;;15.13;12.40;;;9.40;78.90;;;;;;4915448;29;20050;-76
2021/12/22 01:16:35;;;;;;;14.15;11.70;;;9.40;78.90;;;;;;4915632;29;20112;-76
2021/12/22 01:19:04;;;;;;;14.73;12.18;;;9.30;79.40;;;;;;4900005;29;20055;-77
2021/12/22 01:21:40;;;;;;;15.82;12.20;;;9.40;78.90;;;;;;4916205;29;20025;-77
2021/12/22 01:26:51;;;;;;;16.30;12.30;;;9.30;78.90;;;;;;4916494;29;20032;-77
2021/12/22 01:29:17;;;;;;;16.27;13.10;;;9.30;78.90;;;;;;4916569;29;20028;-77
2021/12/22 01:31:43;;;;;;;15.60;12.45;;;9.30;78.90;;;;;;4899826;29;20020;-77
2021/12/22 01:34:10;;;;;;;15.45;11.77;;;9.30;78.80;;;;;;4899459;29;20035;-76
2021/12/22 01:36:36;;;;;;;15.35;13.02;;;9.30;78.80;;;;;;4899581;29;20020;-76
2021/12/22 01:39:04;;;;;;;17.88;12.52;;;9.30;78.80;;;;;;4916423;29;20094;-77
2021/12/22 01:41:30;;;;;;;16.13;12.77;;;9.30;78.90;;;;;;4899407;29;20496;-77
2021/12/22 01:43:56;;;;;;;16.92;13.95;;;9.30;78.80;;;;;;4899276;29;20123;-77
2021/12/22 01:49:37;;;;;;;17.50;14.10;;;9.30;78.80;;;;;;4916380;29;20059;-76
2021/12/22 01:52:06;;;;;;;17.45;13.65;;;9.30;78.80;;;;;;4916061;29;20033;-77
2021/12/22 01:54:42;;;;;;;15.85;13.43;;;9.30;78.80;;;;;;4915965;29;20028;-76
2021/12/22 01:57:11;;;;;;;17.58;13.98;;;9.30;78.70;;;;;;4899360;29;20025;-76
2021/12/22 01:59:41;;;;;;;18.08;13.73;;;9.30;78.70;;;;;;4899387;29;20024;-77
2021/12/22 02:02:09;;;;;;;17.98;14.63;;;9.30;78.70;;;;;;4899241;29;20505;-76
2021/12/22 02:04:38;;;;;;;16.20;13.43;;;9.30;79.30;;;;;;4898504;29;20092;-76
2021/12/22 02:07:04;;;;;;;17.80;14.35;;;9.30;78.70;;;;;;4916117;29;20396;-76
2021/12/22 02:12:16;;;;;;;18.13;14.15;;;9.30;78.80;;;;;;4905393;29;20035;-76
2021/12/22 02:14:42;;;;;;;17.90;13.75;;;9.30;78.80;;;;;;4915850;29;20020;-76
2021/12/22 02:17:10;;;;;;;17.55;14.27;;;9.30;78.80;;;;;;4916000;29;20025;-76
2021/12/22 02:19:49;;;;;;;17.92;14.48;;;9.30;78.80;;;;;;4899161;29;20035;-77
2021/12/22 02:22:16;;;;;;;17.25;14.27;;;9.30;78.80;;;;;;4898516;29;20436;-76
2021/12/22 02:24:48;;;;;;;16.00;13.75;;;9.30;78.80;;;;;;4898807;29;20066;-76
2021/12/22 02:27:26;;;;;;;17.77;14.18;;;9.30;78.80;;;;;;4921802;23;20051;-84
2021/12/22 02:29:58;;;;;;;18.00;14.45;;;9.30;78.90;;;;;;4896127;29;20088;-84
2021/12/22 02:32:54;;;;;;;17.70;14.88;;;9.30;79.40;;;;;;4896154;29;20025;-84
2021/12/22 02:35:09;;;;;;;18.88;15.23;;;9.30;78.90;;;;;;4897123;29;20115;-84
2021/12/22 02:37:43;;;;;;;18.02;14.65;;;9.30;78.90;;;;;;4896020;29;20115;-84
2021/12/22 02:40:13;;;;;;;19.05;14.85;;;9.30;79.00;;;;;;4896011;29;20036;-83
2021/12/22 02:42:39;;;;;;;17.98;14.10;;;9.30;79.00;;;;;;4896144;29;20124;-84
2021/12/22 02:45:10;;;;;;;19.77;15.35;;;9.30;78.90;;;;;;4896023;29;20476;-84
2021/12/22 02:47:36;;;;;;;;;;;9.30;78.90;;;;;;4896215;29;20032;-84
2021/12/22 02:50:04;;;;;;;17.55;14.05;;;9.30;78.90;;;;;;4896721;29;19907;-84
2021/12/22 02:52:37;;;;;;;18.67;13.90;;;9.30;78.90;;;;;;4896316;29;20029;-84
2021/12/22 02:55:04;;;;;;;16.83;13.25;;;9.30;78.90;;;;;;4896321;29;20059;-84
2021/12/22 02:57:44;;;;;;;18.00;14.02;;;9.30;78.90;;;;;;4896444;29;20055;-84
2021/12/22 03:02:58;;;;;;;18.02;14.07;;;9.30;79.00;;;;;;4897176;29;20028;-84
2021/12/22 03:05:25;;;;;;;17.38;13.65;;;9.30;79.00;;;;;;4896275;29;20523;-84
2021/12/22 03:07:51;;;;;;;18.52;14.43;;;9.30;79.00;;;;;;4897348;29;20048;-84
2021/12/22 03:10:18;;;;;;;17.95;13.93;;;9.30;79.00;;;;;;4897531;29;20068;-84
2021/12/22 03:12:52;;;;;;;17.75;14.38;;;9.30;78.90;;;;;;4896659;29;20024;-84
2021/12/22 03:15:18;;;;;;;18.27;14.35;;;9.30;78.90;;;;;;4896019;29;20052;-84
2021/12/22 03:17:44;;;;;;;18.23;14.75;;;9.30;78.90;;;;;;4899311;29;20400;-84
2021/12/22 03:20:12;;;;;;;17.58;13.18;;;9.30;79.00;;;;;;4899323;29;20025;-84
2021/12/22 03:22:37;;;;;;;18.55;13.63;;;9.30;78.90;;;;;;4899035;29;20413;-84
2021/12/22 03:25:13;;;;;;;19.00;15.10;;;9.30;79.00;;;;;;4899042;29;20035;-84
2021/12/22 03:27:39;;;;;;;17.13;13.52;;;9.30;79.00;;;;;;4899126;29;20579;-84
2021/12/22 03:30:06;;;;;;;16.58;13.63;;;9.30;78.90;;;;;;4899288;29;20031;-84
2021/12/22 03:32:32;;;;;;;17.80;13.50;;;9.30;78.90;;;;;;4899052;29;20033;-84
2021/12/22 03:34:57;;;;;;;17.67;13.20;;;9.30;78.90;;;;;;4898640;29;20043;-84
2021/12/22 03:37:23;;;;;;;17.25;13.77;;;9.30;78.90;;;;;;4898784;29;20035;-83
2021/12/22 03:39:49;;;;;;;16.98;13.75;;;9.30;78.90;;;;;;4898753;29;20065;-84
2021/12/22 03:42:15;;;;;;;15.90;12.88;;;9.30;78.80;;;;;;4898857;29;20497;-83
2021/12/22 03:44:40;;;;;;;17.02;13.57;;;9.30;79.10;;;;;;4898560;29;20040;-83
2021/12/22 03:47:06;;;;;;;17.45;13.93;;;9.30;78.80;;;;;;4897124;29;20021;-83
2021/12/22 03:49:32;;;;;;;16.75;13.18;;;9.30;78.90;;;;;;4898377;29;20029;-84
2021/12/22 03:51:58;;;;;;;18.15;13.88;;;9.30;78.80;;;;;;4898547;29;20032;-84
2021/12/22 03:54:24;;;;;;;18.05;14.07;;;9.30;78.80;;;;;;4898535;29;20076;-84
2021/12/22 03:56:50;;;;;;;16.55;13.05;;;9.30;78.80;;;;;;4898488;29;20404;-84
2021/12/22 03:59:16;;;;;;;17.73;14.30;;;9.30;78.80;;;;;;4898635;29;20576;-84
2021/12/22 04:01:42;;;;;;;16.02;12.98;;;9.20;78.70;;;;;;4898513;29;20066;-84
2021/12/22 04:04:13;;;;;;;16.95;12.90;;;9.20;78.70;;;;;;4898166;29;20056;-84
2021/12/22 04:06:39;;;;;;;16.70;12.95;;;9.20;78.70;;;;;;4898422;29;20067;-83
2021/12/22 04:09:05;;;;;;;17.17;13.40;;;9.20;78.70;;;;;;4898210;29;20431;-84
2021/12/22 04:11:31;;;;;;;17.02;13.05;;;9.20;78.70;;;;;;4898195;29;20020;-83
2021/12/22 04:13:56;;;;;;;15.73;12.55;;;9.30;78.70;;;;;;4898234;29;20032;-83
2021/12/22 04:16:22;;;;;;;15.43;12.45;;;9.20;78.60;;;;;;4898157;29;20025;-84
2021/12/22 04:18:48;;;;;;;16.88;13.75;;;9.30;78.70;;;;;;4893840;29;20556;-85
2021/12/22 04:21:13;;;;;;;17.92;13.82;;;9.30;78.60;;;;;;4894576;29;20021;-84
2021/12/22 04:23:39;;;;;;;18.73;13.85;;;9.20;78.60;;;;;;4894751;29;20029;-83
2021/12/22 04:26:05;;;;;;;18.38;13.85;;;9.30;78.70;;;;;;4894581;29;20173;-84
2021/12/22 04:28:30;;;;;;;19.05;13.60;;;9.30;78.60;;;;;;4894258;29;20033;-83
2021/12/22 04:30:56;;;;;;;19.67;14.82;;;9.30;78.60;;;;;;4894951;29;20021;-84
2021/12/22 04:33:22;;;;;;;24.15;15.88;;;9.20;78.50;;;;;;4894573;29;20564;-81
2021/12/22 04:35:49;;;;;;;21.30;15.45;;;9.30;78.60;;;;;;4894544;29;20029;-84
2021/12/22 04:38:17;;;;;;;21.27;15.73;;;9.30;78.60;;;;;;4894623;29;20059;-83
2021/12/22 04:40:43;;;;;;;22.38;16.52;;;9.20;78.60;;;;;;4894542;29;20025;-84
2021/12/22 04:43:08;;;;;;;23.20;16.60;;;9.20;78.50;;;;;;4894339;29;20033;-84
2021/12/22 04:45:34;;;;;;;24.38;17.33;;;9.20;78.50;;;;;;4894342;29;20040;-84
2021/12/22 04:48:00;;;;;;;25.55;17.25;;;9.20;78.50;;;;;;4894314;29;20124;-84
2021/12/22 04:50:26;;;;;;;22.35;16.23;;;9.20;78.50;;;;;;4894546;29;20061;-84
2021/12/22 04:55:39;;;;;;;22.23;15.90;;;9.20;78.50;;;;;;4880081;29;20409;-84
2021/12/22 04:58:05;;;;;;;21.85;15.65;;;9.20;78.50;;;;;;4894108;29;20033;-84
2021/12/22 05:00:33;;;;;;;22.25;15.27;;;9.20;78.40;;;;;;4894499;29;20511;-84
2021/12/22 05:02:59;;;;;;;22.25;15.15;;;9.20;78.40;;;;;;4893926;29;20033;-84
2021/12/22 05:05:26;;;;;;;20.98;15.82;;;9.20;78.40;;;;;;4893956;29;20128;-83
2021/12/22 05:07:52;;;;;;;21.73;15.77;;;9.20;78.50;;;;;;4893878;29;20123;-83
2021/12/22 05:10:18;;;;;;;20.85;15.40;;;9.20;78.40;;;;;;4894001;29;20457;-84
2021/12/22 05:12:46;;;;;;;21.90;16.27;;;9.20;78.40;;;;;;4893774;29;20029;-83
2021/12/22 05:15:12;;;;;;;21.45;15.80;;;9.20;78.40;;;;;;4893722;29;20556;-83
2021/12/22 05:20:05;;;;;;;21.85;16.30;;;9.20;78.50;;;;;;4879806;29;20036;-84
2021/12/22 05:22:31;;;;;;;21.30;15.25;;;9.20;78.40;;;;;;4893265;29;20032;-83
2021/12/22 05:24:59;;;;;;;20.88;15.25;;;9.20;78.40;;;;;;4893684;29;20419;-83
2021/12/22 05:27:25;;;;;;;21.00;14.73;;;9.20;78.40;;;;;;4891919;29;20045;-83
2021/12/22 05:29:50;;;;;;;21.73;15.65;;;9.20;78.40;;;;;;4892179;29;20032;-84
2021/12/22 05:32:16;;;;;;;20.25;14.95;;;9.20;78.30;;;;;;4891962;29;20044;-87
2021/12/22 05:34:42;;;;;;;21.13;15.65;;;9.20;78.40;;;;;;4891689;29;20073;-87
2021/12/22 05:37:07;;;;;;;20.80;14.93;;;9.20;78.20;;;;;;4905845;29;20143;-87
2021/12/22 05:39:33;;;;;;;17.58;13.38;;;9.20;76.50;;;;;;4894911;29;20032;-83
2021/12/22 05:42:00;;;;;;;19.55;14.10;;;9.10;71.00;;;;;;4891132;29;20029;-83
2021/12/22 05:44:26;;;;;;;22.67;16.98;;;9.10;72.90;;;;;;4894173;29;20555;-86
2021/12/22 05:46:52;;;;;;;25.30;19.35;;;9.00;74.10;;;;;;4892118;29;20068;-85
2021/12/22 05:49:17;;;;;;;23.73;19.50;;;9.10;75.20;;;;;;4893969;29;20031;-83
2021/12/22 05:52:02;;;;;;;26.35;20.92;;;9.10;75.90;;;;;;4907055;29;20453;-86
2021/12/22 05:54:30;;;;;;;27.05;22.00;;;9.10;76.40;;;;;;4913598;29;20404;-84
2021/12/22 05:56:56;;;;;;;25.60;20.73;;;9.00;76.60;;;;;;4911502;29;20020;-84
2021/12/22 05:59:21;;;;;;;24.63;20.17;;;9.10;76.80;;;;;;4886605;29;20492;-83
2021/12/22 06:01:47;;;;;;;26.08;20.92;;;9.10;76.90;;;;;;4893480;29;20031;-83
2021/12/22 06:04:13;;;;;;;24.35;20.90;;;9.10;77.00;;;;;;4893398;29;20056;-84
2021/12/22 06:06:38;;;;;;;26.58;20.83;;;9.10;77.00;;;;;;4892609;29;20041;-84
2021/12/22 06:09:05;;;;;;;24.73;19.80;;;9.10;76.40;;;;;;4892629;29;20064;-83
2021/12/22 06:11:31;;;;;;;23.20;19.50;;;9.10;74.10;;;;;;4892611;29;20095;-81
2021/12/22 06:13:57;;;;;;;22.70;19.50;;;9.00;74.60;;;;;;4892539;29;20025;-84
2021/12/22 06:16:24;;;;;;;23.67;20.30;;;9.10;75.50;;;;;;4892585;29;20028;-84
2021/12/22 06:18:55;;;;;;;27.80;20.88;;;9.10;76.00;;;;;;4892368;29;20032;-84
2021/12/22 06:21:21;;;;;;;23.23;20.08;;;9.10;76.30;;;;;;4892733;29;20466;-82
2021/12/22 06:23:47;;;;;;;23.65;19.23;;;9.10;76.60;;;;;;4892003;29;20086;-81
2021/12/22 06:26:13;;;;;;;23.98;19.83;;;9.10;76.70;;;;;;4892464;29;20500;-82
2021/12/22 06:28:39;;;;;;;23.13;20.10;;;9.10;76.80;;;;;;4892042;29;20065;-83
2021/12/22 06:31:04;;;;;;;22.98;19.33;;;9.10;76.90;;;;;;4892419;29;20029;-83
2021/12/22 06:33:30;;;;;;;20.00;17.88;;;9.10;76.80;;;;;;4892137;29;20778;-82
2021/12/22 06:35:55;;;;;;;21.85;18.83;;;9.10;77.00;;;;;;4892023;29;20476;-82
2021/12/22 06:38:21;;;;;;;20.95;18.27;;;9.10;77.00;;;;;;4892627;29;20033;-83
2021/12/22 06:40:47;;;;;;;21.70;17.73;;;9.10;77.10;;;;;;4892700;29;20396;-84
2021/12/22 06:43:15;;;;;;;21.20;17.40;;;9.10;76.70;;;;;;4892537;29;20025;-84
2021/12/22 06:45:40;;;;;;;21.77;17.20;;;9.10;75.90;;;;;;4891736;29;20032;-83
2021/12/22 06:48:06;;;;;;;20.58;16.98;;;9.10;76.30;;;;;;4891980;29;20028;-82
2021/12/22 06:50:31;;;;;;;21.27;17.42;;;9.10;76.50;;;;;;4894251;29;20032;-83
2021/12/22 06:52:57;;;;;;;19.50;16.50;;;9.00;76.60;;;;;;4896189;29;20546;-82
2021/12/22 06:55:22;;;;;;;19.98;16.40;;;9.10;76.80;;;;;;4896299;29;20025;-86
2021/12/22 06:57:48;;;;;;;20.17;13.60;;;9.00;74.90;;;;;;4896291;29;20156;-81
2021/12/22 07:00:14;;;;;;;19.58;13.63;;;9.00;67.10;;;;;;4892670;29;20511;-81
2021/12/22 07:02:40;;;;;;;18.45;14.77;;;8.90;68.70;;;;;;4895711;29;20039;-81
2021/12/22 07:05:08;;;;;;;18.98;14.82;;;8.90;71.30;;;;;;4895612;29;20032;-81
2021/12/22 07:07:34;;;;;;;17.45;14.40;;;8.90;72.70;;;;;;4895466;29;20056;-80
2021/12/22 07:10:00;;;;;;;20.23;15.48;;;8.90;73.80;;;;;;4895301;29;20083;-80
2021/12/22 07:12:26;;;;;;;20.20;16.55;;;9.00;74.60;;;;;;4895202;29;20152;-81
2021/12/22 07:14:52;;;;;;;23.70;18.83;;;9.00;75.00;;;;;;4895562;29;20025;-81
2021/12/22 07:17:17;;;;;;;21.80;18.00;;;8.90;75.20;;;;;;4894952;29;20028;-81
2021/12/22 07:19:43;;;;;;;20.13;17.73;;;8.90;73.40;;;;;;4894758;29;20024;-81
2021/12/22 07:22:09;;;;;;;21.63;19.13;;;8.90;73.90;;;;;;4894543;29;20060;-81
2021/12/22 07:24:35;;;;;;;21.10;17.98;;;9.00;74.50;;;;;;4897140;29;20068;-83
2021/12/22 07:27:00;;;;;;;22.35;18.63;;;9.00;75.00;;;;;;4898770;29;20494;-83
2021/12/22 07:29:26;;;;;;;23.95;19.23;;;8.90;74.00;;;;;;4898487;29;20032;-83
2021/12/22 07:31:52;;;;;;;21.75;18.92;;;9.00;74.60;;;;;;4898855;29;20030;-83
2021/12/22 07:34:27;;;;;;;21.15;17.95;;;9.00;75.10;;;;;;4898448;29;20176;-83
2021/12/22 07:37:03;;;;;;;23.80;19.40;;;9.00;75.40;;;;;;4898633;29;20081;-84
2021/12/22 07:39:29;;;;;;;21.55;18.25;;;9.00;75.60;;;;;;4898674;29;20029;-82
2021/12/22 07:41:54;;;;;;;21.98;18.65;;;9.00;74.20;;;;;;4898440;29;20032;-82
2021/12/22 07:44:20;;;;;;;22.30;18.13;;;8.90;73.80;;;;;;4898360;29;20032;-82
2021/12/22 07:46:46;;;;;;;24.48;19.48;;;9.00;74.40;;;;;;4898425;29;20469;-82
2021/12/22 07:49:11;;;;;;;24.10;19.73;;;8.90;74.80;;;;;;4898346;29;20449;-82
2021/12/22 07:51:37;;;;;;;23.90;19.48;;;9.00;75.30;;;;;;4898445;29;20029;-82
2021/12/22 07:54:03;;;;;;;22.65;19.00;;;9.00;75.60;;;;;;4898157;29;20032;-82
2021/12/22 07:56:29;;;;;;;23.52;19.13;;;9.00;75.80;;;;;;4898297;29;20028;-82
2021/12/22 07:58:54;;;;;;;23.25;19.08;;;9.00;75.90;;;;;;4898241;29;20028;-82
2021/12/22 08:01:21;;;;;;;23.63;18.98;;;9.00;75.90;;;;;;4898597;29;20039;-83
2021/12/22 08:03:46;;;;;;;23.40;18.75;;;9.00;76.00;;;;;;4897854;29;20120;-82
2021/12/22 08:06:14;;;;;;;23.45;18.40;;;9.10;76.20;;;;;;4882887;29;20089;-83
2021/12/22 08:08:40;;;;;;;22.67;18.13;;;9.10;76.10;;;;;;4897934;29;20684;-83
2021/12/22 08:11:05;;;;;;;21.13;17.58;;;9.10;76.10;;;;;;4898061;29;20025;-82
2021/12/22 08:13:32;;;;;;;23.30;18.25;;;9.10;76.10;;;;;;4897857;29;20025;-83
2021/12/22 08:15:57;;;;;;;22.70;17.75;;;9.10;76.20;;;;;;4897961;29;20090;-83
2021/12/22 08:18:24;;;;;;;22.13;17.23;;;9.10;76.20;;;;;;4898205;29;20042;-83
2021/12/22 08:20:50;;;;;;;20.58;16.70;;;9.10;76.10;;;;;;4897972;29;20064;-82
2021/12/22 08:23:18;;;;;;;22.42;17.20;;;9.20;76.20;;;;;;4898027;29;20511;-79
2021/12/22 08:25:44;;;;;;;20.30;16.13;;;9.20;76.20;;;;;;4898034;29;20128;-82
2021/12/22 08:28:10;;;;;;;21.75;17.13;;;9.20;76.20;;;;;;4948437;23;20565;-78
2021/12/22 08:30:35;;;;;;;20.83;15.75;;;9.20;76.20;;;;;;4877104;29;20485;-78
2021/12/22 08:33:05;;;;;;;22.27;16.63;;;9.20;76.20;;;;;;4878983;29;20489;-76
2021/12/22 08:38:49;;;;;;;22.98;16.23;;;9.20;76.30;;;;;;4879863;29;20561;-77
2021/12/22 08:41:00;;;;;;;21.10;16.63;;;9.30;76.20;;;;;;4880138;29;20428;-74
2021/12/22 08:43:26;;;;;;;19.85;15.70;;;9.30;76.10;;;;;;4878493;29;20029;-76
2021/12/22 08:45:51;;;;;;;19.85;16.15;;;9.30;76.00;;;;;;4879885;29;20033;-77
2021/12/22 08:48:17;;;;;;;21.27;15.95;;;9.30;76.00;;;;;;4878528;29;20039;-76
2021/12/22 08:50:42;;;;;;;20.05;15.93;;;9.30;76.00;;;;;;4879884;29;20482;-77
2021/12/22 08:53:08;;;;;;;19.88;15.55;;;9.30;75.90;;;;;;4879725;29;20022;-77
2021/12/22 08:55:33;;;;;;;20.63;15.95;;;9.30;75.90;;;;;;4878384;29;20021;-76
2021/12/22 08:57:59;;;;;;;22.48;16.67;;;9.40;75.90;;;;;;4879605;29;20089;-77
2021/12/22 09:00:24;;;;;;;19.42;15.48;;;9.40;76.00;;;;;;4879657;29;20033;-77
2021/12/22 09:02:50;;;;;;;20.85;15.77;;;9.40;75.80;;;;;;4879562;29;20405;-76
2021/12/22 09:05:15;;;;;;;20.13;15.73;;;9.40;75.70;;;;;;4878152;29;20032;-76
2021/12/22 09:07:41;;;;;;;20.63;15.68;;;9.50;75.80;;;;;;4879366;29;20041;-76
2021/12/22 09:10:07;;;;;;;21.48;16.60;;;9.50;75.80;;;;;;4878255;29;20028;-76
2021/12/22 09:12:33;;;;;;;19.65;14.98;;;9.50;75.70;;;;;;4878112;29;20557;-76
2021/12/22 09:14:59;;;;;;;19.70;14.80;;;9.50;75.40;;;;;;4879221;29;20370;-77
2021/12/22 09:17:25;;;;;;;20.05;14.38;;;9.60;76.00;;;;;;4879342;29;20025;-78
2021/12/22 09:19:52;;;;;;;18.92;14.30;;;9.60;76.00;;;;;;4878136;29;20065;-77
2021/12/22 09:22:18;;;;;;;20.65;15.93;;;9.60;75.80;;;;;;4879267;29;20485;-77
2021/12/22 09:24:43;;;;;;;17.75;14.35;;;9.70;75.80;;;;;;4877823;29;20037;-77
2021/12/22 09:27:09;;;;;;;18.30;14.93;;;9.70;75.70;;;;;;4877946;29;20035;-77
2021/12/22 09:29:36;;;;;;;19.75;15.02;;;9.70;75.60;;;;;;4877564;29;20037;-77
2021/12/22 09:32:02;;;;;;;18.48;13.98;;;9.70;75.50;;;;;;4879082;29;20025;-77
2021/12/22 09:34:27;;;;;;;19.38;14.48;;;9.70;75.20;;;;;;4877640;29;20062;-78
2021/12/22 09:36:53;;;;;;;20.58;15.15;;;9.70;75.20;;;;;;4877827;29;20477;-77
2021/12/22 09:39:18;;;;;;;18.30;14.18;;;9.70;75.30;;;;;;4878926;29;20040;-78
2021/12/22 09:41:45;;;;;;;20.70;14.35;;;9.80;75.40;;;;;;4877804;29;20037;-76
2021/12/22 09:44:10;;;;;;;19.13;14.00;;;9.80;75.30;;;;;;4877641;29;20029;-77
2021/12/22 09:46:39;;;;;;;17.60;13.68;;;9.80;75.20;;;;;;4878887;29;20709;-77
2021/12/22 09:49:20;;;;;;;19.00;13.38;;;9.80;75.40;;;;;;4878786;29;20033;-77
2021/12/22 09:54:31;;;;;;;18.05;13.25;;;9.80;75.30;;;;;;4878907;29;20032;-77
2021/12/22 09:56:56;;;;;;;17.55;13.45;;;9.80;75.20;;;;;;4877560;29;20029;-76
2021/12/22 09:59:22;;;;;;;17.17;13.40;;;9.90;74.90;;;;;;4878722;29;20048;-77
2021/12/22 10:01:48;;;;;;;18.73;13.02;;;9.90;75.00;;;;;;4877578;29;20033;-77
2021/12/22 10:04:16;;;;;;;16.95;12.70;;;9.90;74.90;;;;;;4878566;29;20081;-77
2021/12/22 10:06:42;;;;;;;17.70;12.63;;;9.90;74.90;;;;;;4877480;29;20059;-77
2021/12/22 10:09:07;;;;;;;15.95;12.32;;;9.90;75.50;;;;;;4877388;29;20065;-77
2021/12/22 10:11:39;;;;;;;18.17;11.95;;;9.90;74.80;;;;;;4877527;29;20029;-76
2021/12/22 10:14:36;;;;;;;16.60;12.20;;;10.00;75.00;;;;;;4878564;29;20481;-77
2021/12/22 10:17:01;;;;;;;14.93;11.55;;;10.00;74.50;;;;;;4877486;29;20025;-76
2021/12/22 10:19:27;;;;;;;15.45;11.02;;;10.00;74.50;;;;;;4877426;29;20057;-77
2021/12/22 10:22:01;;;;;;;15.23;12.00;;;10.00;74.70;;;;;;4877376;29;20029;-77
2021/12/22 10:24:37;;;;;;;14.98;11.48;;;10.00;74.70;;;;;;4878555;29;20035;-76
2021/12/22 10:27:10;;;;;;;14.55;11.25;;;10.00;74.40;;;;;;4882404;29;20037;-76
2021/12/22 10:29:36;;;;;;;15.18;11.68;;;10.00;74.50;;;;;;4880498;29;20120;-77
2021/12/22 10:32:09;;;;;;;14.82;11.65;;;10.00;74.50;;;;;;4881031;29;20116;-76
2021/12/22 10:34:35;;;;;;;14.95;11.40;;;10.00;74.30;;;;;;4880851;29;20052;-76
2021/12/22 10:37:00;;;;;;;16.40;12.13;;;10.00;74.10;;;;;;4881047;29;20481;-76
2021/12/22 10:39:28;;;;;;;13.68;11.05;;;10.00;74.30;;;;;;4880845;29;20402;-77
2021/12/22 10:42:11;;;;;;;13.40;10.57;;;10.00;74.40;;;;;;4881020;29;20033;-76
2021/12/22 10:44:44;;;;;;;16.95;11.70;;;10.10;74.70;;;;;;4881821;29;20025;-76
2021/12/22 10:47:18;;;;;;;13.65;10.98;;;10.10;74.60;;;;;;4882005;29;20025;-77
2021/12/22 10:50:01;;;;;;;14.07;11.50;;;10.20;74.50;;;;;;4880620;29;20081;-76
2021/12/22 10:52:27;;;;;;;13.23;10.57;;;10.20;74.20;;;;;;4881908;29;20548;-77
2021/12/22 10:55:10;;;;;;;14.30;10.40;;;10.30;74.10;;;;;;4881626;29;20179;-77
2021/12/22 10:57:37;;;;;;;13.52;10.60;;;10.30;74.00;;;;;;4880514;29;20063;-76
2021/12/22 11:00:18;;;;;;;13.98;10.50;;;10.30;73.70;;;;;;4880475;29;20036;-77
2021/12/22 11:03:05;;;;;;;14.35;11.30;;;10.30;73.60;;;;;;4880618;29;20493;-76
2021/12/22 11:05:30;;;;;;;13.90;10.90;;;10.30;73.70;;;;;;4881555;29;20040;-76
2021/12/22 11:07:57;;;;;;;13.90;10.75;;;10.30;73.70;;;;;;4881339;29;20389;-75
2021/12/22 11:10:28;;;;;;;13.52;10.70;;;10.30;73.50;;;;;;4881601;29;20516;-76
2021/12/22 11:13:03;;;;;;;13.57;10.35;;;10.30;73.60;;;;;;4880574;29;20036;-76
2021/12/22 11:15:30;;;;;;;13.15;10.50;;;10.30;73.70;;;;;;4881246;29;20084;-76
2021/12/22 11:17:55;;;;;;;12.98;10.27;;;10.30;73.60;;;;;;4881391;29;20494;-76
2021/12/22 11:20:25;;;;;;;14.00;11.02;;;10.30;73.60;;;;;;4880335;29;20177;-75
2021/12/22 11:23:00;;;;;;;13.25;10.20;;;10.30;73.50;;;;;;4880045;29;20036;-77
2021/12/22 11:25:27;;;;;;;13.88;10.32;;;10.30;73.60;;;;;;4881224;29;20033;-78
2021/12/22 11:27:54;;;;;;;12.82;10.15;;;10.30;73.40;;;;;;4881053;29;20036;-77
2021/12/22 11:30:22;;;;;;;13.52;10.38;;;10.30;73.50;;;;;;4879654;29;20058;-77
2021/12/22 11:32:47;;;;;;;12.27;9.57;;;10.30;73.70;;;;;;4881076;29;20494;-77
2021/12/22 11:35:15;;;;;;;12.70;10.10;;;10.30;73.60;;;;;;4880905;29;20037;-77
2021/12/22 11:37:41;;;;;;;12.32;9.68;;;10.30;73.50;;;;;;4878628;29;20038;-78
2021/12/22 11:40:10;;;;;;;12.90;9.90;;;10.30;73.50;;;;;;4881174;29;20104;-77
2021/12/22 11:42:39;;;;;;;13.57;10.40;;;10.30;73.50;;;;;;4879831;29;20120;-77
2021/12/22 11:45:13;;;;;;;12.82;9.95;;;10.30;73.60;;;;;;4879616;29;20032;-76
2021/12/22 11:47:43;;;;;;;12.98;9.75;;;10.30;73.70;;;;;;4879619;29;20120;-76
2021/12/22 11:50:25;;;;;;;12.70;9.83;;;10.30;73.50;;;;;;4880995;29;20050;-76
2021/12/22 11:52:58;;;;;;;;;;;10.30;73.50;;;;;;4881275;29;20095;-77
2021/12/22 11:55:36;;;;;;;12.98;9.85;;;10.20;73.60;;;;;;4880649;29;20337;-78
2021/12/22 11:58:21;;;;;;;12.55;9.75;;;10.20;73.70;;;;;;4879548;29;20080;-76
2021/12/22 12:00:50;;;;;;;14.05;10.38;;;10.20;73.60;;;;;;4878088;29;20549;-76
2021/12/22 12:03:44;;;;;;;11.93;9.45;;;10.10;73.30;;;;;;4879356;29;20493;-75
2021/12/22 12:06:21;;;;;;;12.90;9.93;;;10.10;73.80;;;;;;4879589;29;20057;-76
2021/12/22 12:08:55;;;;;;;13.25;10.00;;;10.00;74.30;;;;;;4894877;29;20033;-77
2021/12/22 12:11:33;;;;;;;13.07;10.00;;;10.00;74.60;;;;;;4910745;29;20068;-76
2021/12/22 12:14:10;;;;;;;12.85;9.70;;;9.90;74.70;;;;;;4879094;29;20389;-76
2021/12/22 12:22:29;;;;;;;12.73;10.00;;;9.90;74.90;;;;;;4899096;29;20075;-76
2021/12/22 12:25:00;;;;;;;13.23;9.90;;;9.90;75.00;;;;;;4894469;29;20032;-75
2021/12/22 12:27:52;;;;;;;13.57;10.18;;;9.90;75.10;;;;;;4878923;29;20033;-77
2021/12/22 12:30:47;;;;;;;13.13;10.27;;;9.80;75.20;;;;;;4879073;29;20528;-76
2021/12/22 12:33:20;;;;;;;17.42;10.38;;;9.80;74.90;;;;;;4878912;29;20032;-76
2021/12/22 12:36:01;;;;;;;16.75;10.43;;;9.80;74.80;;;;;;4879941;29;20037;-72
2021/12/22 12:38:51;;;;;;;34.70;11.23;;;9.80;75.00;;;;;;4878794;29;20117;-76
2021/12/22 12:41:18;;;;;;;21.10;10.83;;;9.80;75.30;;;;;;4878834;29;20472;-76
2021/12/22 12:43:45;;;;;;;18.95;10.95;;;9.80;75.40;;;;;;4878405;29;20029;-76
2021/12/22 12:46:35;;;;;;;16.73;10.43;;;9.70;75.40;;;;;;4878585;29;20077;-77
2021/12/22 12:49:03;;;;;;;16.33;11.32;;;9.70;75.70;;;;;;4878211;29;20054;-76
2021/12/22 12:51:46;;;;;;;16.75;10.07;;;9.70;75.90;;;;;;4878047;29;20124;-76
2021/12/22 12:54:17;;;;;;;17.38;10.73;;;9.70;76.10;;;;;;4878241;29;20029;-76
2021/12/22 12:56:50;;;;;;;14.25;11.10;;;9.60;76.30;;;;;;4878434;29;20029;-75
2021/12/22 12:59:37;;;;;;;16.88;10.63;;;9.60;76.40;;;;;;4879574;29;20069;-76
2021/12/22 13:02:05;;;;;;;19.13;11.35;;;9.60;75.00;;;;;;4879596;29;20508;-75
2021/12/22 13:04:33;;;;;;;19.58;11.25;;;9.60;74.90;;;;;;4879473;29;20044;-75
2021/12/22 13:07:05;;;;;;;15.85;11.15;;;9.60;75.30;;;;;;4879573;29;20033;-76
2021/12/22 13:09:31;;;;;;;15.40;10.23;;;9.60;75.70;;;;;;4879318;29;20457;-75